createdAt,value
2023-05-09T00:00:47.231Z,99423.91
2023-05-09T00:03:14.604Z,99425.56
2023-05-09T00:05:42.087Z,99415.03
2023-05-09T00:08:08.988Z,99421.69
2023-05-09T00:10:35.956Z,99418.91
2023-05-09T00:13:02.938Z,99421.41
2023-05-09T00:15:29.808Z,99421.13
2023-05-09T00:17:56.503Z,99419.69
2023-05-09T00:20:23.295Z,99421.13
2023-05-09T00:22:50.024Z,99417.38
2023-05-09T00:25:16.908Z,99421.22
2023-05-09T00:27:43.890Z,99413.72
2023-05-09T00:30:11.035Z,99415.97
2023-05-09T00:32:37.790Z,99405.56
2023-05-09T00:35:05.430Z,99407.78
2023-05-09T00:37:32.171Z,99401.97
2023-05-09T00:39:58.876Z,99399.22
2023-05-09T00:42:25.615Z,99396.84
2023-05-09T00:44:52.303Z,99392.56
2023-05-09T00:47:19.387Z,99387.00
2023-05-09T00:49:46.181Z,99387.97
2023-05-09T00:52:12.853Z,99387.69
2023-05-09T00:54:39.808Z,99382.09
2023-05-09T00:57:06.780Z,99376.66
2023-05-09T00:59:33.480Z,99369.84
2023-05-09T01:02:00.196Z,99371.34
2023-05-09T01:04:26.980Z,99368.09
2023-05-09T01:07:29.438Z,99362.41
2023-05-09T01:10:02.224Z,99362.53
2023-05-09T01:12:41.334Z,99366.13
2023-05-09T01:15:19.338Z,99368.00
2023-05-09T01:17:56.396Z,99373.28
2023-05-09T01:20:54.497Z,99358.97
2023-05-09T01:24:04.744Z,99356.72
2023-05-09T01:26:46.885Z,99355.84
2023-05-09T01:29:35.668Z,99362.25
2023-05-09T01:32:06.487Z,99360.13
2023-05-09T01:34:35.300Z,99364.16
2023-05-09T01:37:04.431Z,99361.50
2023-05-09T01:39:33.486Z,99368.28
2023-05-09T01:42:03.205Z,99364.38
2023-05-09T01:44:40.588Z,99361.81
2023-05-09T01:47:08.388Z,99364.50
2023-05-09T01:49:39.007Z,99355.81
2023-05-09T01:52:10.597Z,99359.13
2023-05-09T01:54:37.989Z,99362.75
2023-05-09T01:57:05.288Z,99360.00
2023-05-09T01:59:33.665Z,99362.97
2023-05-09T02:02:01.073Z,99357.47
2023-05-09T02:04:28.708Z,99347.06
2023-05-09T02:06:56.065Z,99352.66
2023-05-09T02:09:22.871Z,99349.88
2023-05-09T02:11:49.687Z,99348.22
2023-05-09T02:14:16.578Z,99340.47
2023-05-09T02:16:43.501Z,99342.22
2023-05-09T02:19:10.367Z,99337.00
2023-05-09T02:21:37.048Z,99333.75
2023-05-09T02:24:04.279Z,99337.66
2023-05-09T02:26:31.156Z,99341.38
2023-05-09T02:28:59.071Z,99342.25
2023-05-09T02:31:26.358Z,99349.28
2023-05-09T02:33:53.818Z,99342.31
2023-05-09T02:36:21.238Z,99348.03
2023-05-09T02:38:48.389Z,99345.75
2023-05-09T02:41:18.159Z,99343.53
2023-05-09T02:43:45.341Z,99339.72
2023-05-09T02:46:12.071Z,99334.06
2023-05-09T02:48:38.849Z,99333.13
2023-05-09T02:51:05.584Z,99332.34
2023-05-09T02:53:32.297Z,99329.28
2023-05-09T02:55:59.022Z,99331.91
2023-05-09T02:58:25.789Z,99331.91
2023-05-09T03:00:52.460Z,99329.72
2023-05-09T03:03:19.431Z,99327.56
2023-05-09T03:05:46.625Z,99321.75
2023-05-09T03:08:13.325Z,99324.03
2023-05-09T03:10:40.079Z,99329.53
2023-05-09T03:13:06.871Z,99329.22
2023-05-09T03:15:33.618Z,99322.84
2023-05-09T03:18:00.383Z,99324.22
2023-05-09T03:20:27.760Z,99325.50
2023-05-09T03:22:54.576Z,99323.72
2023-05-09T03:25:21.450Z,99323.59
2023-05-09T03:27:48.275Z,99317.38
2023-05-09T03:30:15.227Z,99320.63
2023-05-09T03:32:41.979Z,99325.25
2023-05-09T03:35:09.215Z,99330.72
2023-05-09T03:37:36.129Z,99319.09
2023-05-09T03:40:02.874Z,99322.69
2023-05-09T03:42:29.572Z,99320.25
2023-05-09T03:44:56.249Z,99327.09
2023-05-09T03:47:23.069Z,99318.78
2023-05-09T03:49:49.762Z,99318.66
2023-05-09T03:52:16.595Z,99313.97
2023-05-09T03:54:43.334Z,99317.91
2023-05-09T03:57:10.013Z,99320.94
2023-05-09T03:59:36.688Z,99314.31
2023-05-09T04:02:03.551Z,99317.44
2023-05-09T04:04:30.326Z,99319.03
2023-05-09T04:06:57.278Z,99312.41
2023-05-09T04:09:24.031Z,99315.00
2023-05-09T04:11:50.871Z,99304.34
2023-05-09T04:14:18.527Z,99309.44
2023-05-09T04:16:45.375Z,99307.06
2023-05-09T04:19:12.396Z,99308.78
2023-05-09T04:21:39.092Z,99292.56
2023-05-09T04:24:06.583Z,99302.41
2023-05-09T04:26:33.343Z,99304.13
2023-05-09T04:29:00.049Z,99295.56
2023-05-09T04:31:26.919Z,99302.59
2023-05-09T04:33:53.786Z,99304.22
2023-05-09T04:36:20.558Z,99302.09
2023-05-09T04:38:47.306Z,99301.56
2023-05-09T04:41:14.277Z,99302.47
2023-05-09T04:43:40.973Z,99300.16
2023-05-09T04:46:08.191Z,99299.78
2023-05-09T04:48:35.961Z,99293.81
2023-05-09T04:51:02.807Z,99289.50
2023-05-09T04:53:29.929Z,99281.38
2023-05-09T04:55:56.676Z,99276.88
2023-05-09T04:58:23.410Z,99277.59
2023-05-09T05:00:50.333Z,99284.81
2023-05-09T05:03:18.262Z,99287.16
2023-05-09T05:05:45.244Z,99275.00
2023-05-09T05:08:12.122Z,99285.16
2023-05-09T05:10:38.846Z,99277.44
2023-05-09T05:13:05.748Z,99283.25
2023-05-09T05:15:32.454Z,99284.09
2023-05-09T05:17:59.197Z,99278.97
2023-05-09T05:20:25.941Z,99281.44
2023-05-09T05:22:55.582Z,99286.56
2023-05-09T05:25:22.556Z,99273.84
2023-05-09T05:27:50.386Z,99277.28
2023-05-09T05:30:17.132Z,99278.81
2023-05-09T05:32:44.307Z,99272.06
2023-05-09T05:35:14.339Z,99274.22
2023-05-09T05:37:41.936Z,99263.59
2023-05-09T05:40:09.174Z,99266.56
2023-05-09T05:42:36.202Z,99261.91
2023-05-09T05:45:05.135Z,99260.38
2023-05-09T05:47:36.683Z,99263.56
2023-05-09T05:50:09.354Z,99259.47
2023-05-09T05:52:36.147Z,99256.69
2023-05-09T05:55:02.855Z,99256.81
2023-05-09T05:57:29.571Z,99241.75
2023-05-09T05:59:56.263Z,99241.75
2023-05-09T06:02:23.177Z,99237.25
2023-05-09T06:04:49.947Z,99237.41
2023-05-09T06:07:17.543Z,99238.81
2023-05-09T06:09:44.250Z,99230.16
2023-05-09T06:12:12.184Z,99230.72
2023-05-09T06:14:38.873Z,99225.22
2023-05-09T06:17:05.854Z,99233.59
2023-05-09T06:19:32.642Z,99231.38
2023-05-09T06:21:59.712Z,99229.09
2023-05-09T06:24:35.958Z,99229.47
2023-05-09T06:27:04.125Z,99225.66
2023-05-09T06:29:31.157Z,99229.69
2023-05-09T06:31:58.144Z,99221.47
2023-05-09T06:34:24.912Z,99218.38
2023-05-09T06:36:51.622Z,99216.53
2023-05-09T06:39:18.296Z,99212.84
2023-05-09T06:41:45.362Z,99213.59
2023-05-09T06:44:12.072Z,99212.03
2023-05-09T06:46:39.760Z,99200.47
2023-05-09T06:49:06.763Z,99211.25
2023-05-09T06:51:33.538Z,99199.69
2023-05-09T06:54:01.324Z,99209.13
2023-05-09T06:56:28.141Z,99201.72
2023-05-09T06:58:54.871Z,99195.59
2023-05-09T07:01:21.588Z,99192.81
2023-05-09T07:03:48.557Z,99191.94
2023-05-09T07:06:15.375Z,99191.75
2023-05-09T07:08:42.118Z,99181.44
2023-05-09T07:11:08.922Z,99182.75
2023-05-09T07:13:35.609Z,99183.19
2023-05-09T07:16:02.375Z,99181.63
2023-05-09T07:18:30.080Z,99171.81
2023-05-09T07:20:56.911Z,99178.91
2023-05-09T07:23:23.672Z,99178.69
2023-05-09T07:25:50.451Z,99170.69
2023-05-09T07:28:17.131Z,99184.03
2023-05-09T07:30:44.062Z,99174.16
2023-05-09T07:33:11.323Z,99174.63
2023-05-09T07:35:38.034Z,99171.56
2023-05-09T07:38:07.152Z,99154.56
2023-05-09T07:40:36.649Z,99144.81
2023-05-09T07:43:03.389Z,99160.75
2023-05-09T07:45:30.150Z,99147.25
2023-05-09T07:47:56.920Z,99140.75
2023-05-09T07:50:23.880Z,99131.16
2023-05-09T07:52:51.559Z,99145.63
2023-05-09T07:55:18.603Z,99135.53
2023-05-09T07:57:45.627Z,99128.00
2023-05-09T08:00:13.068Z,99125.44
2023-05-09T08:02:40.347Z,99121.00
2023-05-09T08:05:08.359Z,99116.78
2023-05-09T08:07:36.027Z,99115.22
2023-05-09T08:10:03.277Z,99112.50
2023-05-09T08:12:30.272Z,99111.94
2023-05-09T08:14:57.264Z,99092.28
2023-05-09T08:17:24.089Z,99097.50
2023-05-09T08:19:50.949Z,99090.66
2023-05-09T08:22:19.011Z,99096.06
2023-05-09T08:24:46.747Z,99082.88
2023-05-09T08:27:14.319Z,99091.94
2023-05-09T08:29:41.330Z,99082.06
2023-05-09T08:32:11.786Z,99080.22
2023-05-09T08:34:38.803Z,99077.78
2023-05-09T08:37:05.566Z,99080.41
2023-05-09T08:39:35.414Z,99079.78
2023-05-09T08:42:02.699Z,99069.22
2023-05-09T08:44:30.308Z,99082.06
2023-05-09T08:47:00.526Z,99067.22
2023-05-09T08:49:28.563Z,99065.47
2023-05-09T08:51:56.202Z,99054.97
2023-05-09T08:54:23.877Z,99065.47
2023-05-09T08:56:51.313Z,99061.09
2023-05-09T08:59:19.058Z,99061.03
2023-05-09T09:01:46.081Z,99056.88
2023-05-09T09:04:12.925Z,99057.91
2023-05-09T09:06:40.819Z,99064.34
2023-05-09T09:09:09.796Z,99057.34
2023-05-09T09:11:37.179Z,99050.53
2023-05-09T09:14:13.758Z,99053.06
2023-05-09T09:16:42.039Z,99041.66
2023-05-09T09:19:13.881Z,99039.28
2023-05-09T09:21:47.681Z,99040.19
2023-05-09T09:24:14.827Z,99030.19
2023-05-09T09:26:49.293Z,99026.19
2023-05-09T09:29:17.607Z,99034.22
2023-05-09T09:31:46.539Z,99026.03
2023-05-09T09:34:15.698Z,99017.53
2023-05-09T09:36:42.484Z,99024.84
2023-05-09T09:39:09.693Z,99015.88
2023-05-09T09:41:40.150Z,99008.56
2023-05-09T09:44:18.183Z,99008.38
2023-05-09T09:46:53.912Z,99006.22
2023-05-09T09:49:26.457Z,99000.09
2023-05-09T09:51:57.672Z,98991.91
2023-05-09T09:54:28.025Z,98993.16
2023-05-09T09:56:55.357Z,98988.63
2023-05-09T09:59:25.516Z,98979.78
2023-05-09T10:02:08.369Z,98973.03
2023-05-09T10:04:37.024Z,98963.78
2023-05-09T10:07:09.042Z,98960.50
2023-05-09T10:09:38.263Z,98966.25
2023-05-09T10:12:06.671Z,98969.94
2023-05-09T10:14:35.641Z,98963.78
2023-05-09T10:17:04.146Z,98953.13
2023-05-09T10:19:31.423Z,98943.47
2023-05-09T10:22:01.356Z,98943.88
2023-05-09T10:25:04.491Z,98938.94
2023-05-09T10:27:33.428Z,98932.19
2023-05-09T10:30:14.291Z,98931.56
2023-05-09T10:33:11.704Z,98921.31
2023-05-09T10:35:45.411Z,98917.19
2023-05-09T10:38:13.060Z,98920.06
2023-05-09T10:40:42.573Z,98913.91
2023-05-09T10:43:09.260Z,98907.16
2023-05-09T10:45:36.351Z,98914.72
2023-05-09T10:48:08.012Z,98896.88
2023-05-09T10:50:37.007Z,98905.09
2023-05-09T10:53:14.501Z,98891.13
2023-05-09T10:56:07.730Z,98893.16
2023-05-09T10:58:37.616Z,98885.16
2023-05-09T11:01:05.212Z,98888.03
2023-05-09T11:03:59.235Z,98885.94
2023-05-09T11:06:51.804Z,98867.38
2023-05-09T11:09:37.369Z,98869.31
2023-05-09T11:12:12.435Z,98850.34
2023-05-09T11:14:49.097Z,98864.75
2023-05-09T11:17:40.461Z,98842.13
2023-05-09T11:20:09.312Z,98841.25
2023-05-09T11:22:45.273Z,98840.31
2023-05-09T11:25:14.399Z,98835.50
2023-05-09T11:27:43.751Z,98829.13
2023-05-09T11:30:18.230Z,98824.88
2023-05-09T11:32:55.501Z,98824.84
2023-05-09T11:35:23.796Z,98815.28
2023-05-09T11:37:53.154Z,98817.25
2023-05-09T11:40:21.752Z,98807.22
2023-05-09T11:42:50.477Z,98815.91
2023-05-09T11:45:17.961Z,98807.00
2023-05-09T11:47:46.080Z,98802.97
2023-05-09T11:50:13.890Z,98798.81
2023-05-09T11:52:41.858Z,98791.81
2023-05-09T11:55:12.404Z,98795.09
2023-05-09T11:57:46.109Z,98786.91
2023-05-09T12:00:14.434Z,98787.16
2023-05-09T12:02:44.432Z,98781.97
2023-05-09T12:05:13.548Z,98784.00
2023-05-09T12:07:41.511Z,98781.13
2023-05-09T12:10:09.576Z,98774.09
2023-05-09T12:12:37.372Z,98771.59
2023-05-09T12:15:08.359Z,98765.47
2023-05-09T12:17:36.003Z,98758.22
2023-05-09T12:20:06.114Z,98757.28
2023-05-09T12:22:33.705Z,98754.47
2023-05-09T12:25:05.838Z,98755.66
2023-05-09T12:27:33.351Z,98756.94
2023-05-09T12:30:09.213Z,98746.72
2023-05-09T12:32:36.951Z,98739.09
2023-05-09T12:35:03.888Z,98734.00
2023-05-09T12:37:32.976Z,98727.50
2023-05-09T12:40:15.648Z,98728.38
2023-05-09T12:42:46.412Z,98730.59
2023-05-09T12:45:14.120Z,98725.09
2023-05-09T12:47:42.502Z,98721.56
2023-05-09T12:50:12.016Z,98720.28
2023-05-09T12:52:50.574Z,98714.59
2023-05-09T12:55:25.579Z,98709.88
2023-05-09T12:58:03.794Z,98696.75
2023-05-09T13:00:44.404Z,98709.53
2023-05-09T13:03:25.614Z,98698.41
2023-05-09T13:05:57.482Z,98696.28
2023-05-09T13:08:24.185Z,98694.66
2023-05-09T13:10:53.665Z,98690.00
2023-05-09T13:13:28.775Z,98685.91
2023-05-09T13:15:55.827Z,98696.22
2023-05-09T13:18:24.459Z,98687.44
2023-05-09T13:20:52.206Z,98686.31
2023-05-09T13:23:19.178Z,98672.44
2023-05-09T13:25:46.027Z,98678.59
2023-05-09T13:28:12.935Z,98669.16
2023-05-09T13:30:39.792Z,98671.16
2023-05-09T13:33:23.915Z,98661.84
2023-05-09T13:35:52.257Z,98658.47
2023-05-09T13:38:18.955Z,98654.72
2023-05-09T13:40:45.695Z,98651.81
2023-05-09T13:43:12.401Z,98642.97
2023-05-09T13:45:39.419Z,98639.81
2023-05-09T13:48:06.506Z,98634.34
2023-05-09T13:50:34.100Z,98631.78
2023-05-09T13:53:00.839Z,98622.22
2023-05-09T13:55:28.004Z,98619.31
2023-05-09T13:57:55.307Z,98621.25
2023-05-09T14:00:22.474Z,98617.06
2023-05-09T14:02:49.269Z,98611.59
2023-05-09T14:05:17.143Z,98602.84
2023-05-09T14:07:44.071Z,98598.06
2023-05-09T14:10:12.297Z,98593.75
2023-05-09T14:12:40.533Z,98600.41
2023-05-09T14:15:12.265Z,98584.41
2023-05-09T14:17:40.161Z,98582.31
2023-05-09T14:20:08.450Z,98581.16
2023-05-09T14:22:35.203Z,98582.19
2023-05-09T14:25:02.025Z,98578.22
2023-05-09T14:27:28.744Z,98563.44
2023-05-09T14:29:55.601Z,98565.53
2023-05-09T14:32:22.464Z,98554.78
2023-05-09T14:34:52.257Z,98550.19
2023-05-09T14:37:18.983Z,98552.66
2023-05-09T14:39:45.915Z,98541.00
2023-05-09T14:42:14.341Z,98547.59
2023-05-09T14:44:41.979Z,98539.88
2023-05-09T14:47:09.938Z,98539.06
2023-05-09T14:49:37.314Z,98531.28
2023-05-09T14:52:04.102Z,98519.06
2023-05-09T14:54:30.979Z,98531.94
2023-05-09T14:56:59.791Z,98521.25
2023-05-09T14:59:26.516Z,98515.97
2023-05-09T15:01:53.246Z,98514.56
2023-05-09T15:04:20.011Z,98518.53
2023-05-09T15:06:46.880Z,98511.63
2023-05-09T15:09:14.269Z,98504.53
2023-05-09T15:11:48.211Z,98505.06
2023-05-09T15:14:17.038Z,98505.44
2023-05-09T15:16:44.073Z,98498.47
2023-05-09T15:19:11.086Z,98493.53
2023-05-09T15:21:37.994Z,98492.44
2023-05-09T15:24:08.182Z,98494.91
2023-05-09T15:26:34.927Z,98493.41
2023-05-09T15:29:01.663Z,98483.53
2023-05-09T15:31:32.941Z,98486.38
2023-05-09T15:34:00.738Z,98478.94
2023-05-09T15:36:29.700Z,98476.16
2023-05-09T15:38:56.530Z,98466.91
2023-05-09T15:41:23.577Z,98466.09
2023-05-09T15:43:50.557Z,98473.22
2023-05-09T15:46:17.339Z,98473.13
2023-05-09T15:48:44.492Z,98456.66
2023-05-09T15:51:11.594Z,98471.78
2023-05-09T15:53:38.374Z,98468.47
2023-05-09T15:56:05.427Z,98464.94
2023-05-09T15:58:32.274Z,98453.88
2023-05-09T16:00:59.029Z,98453.22
2023-05-09T16:03:25.883Z,98453.88
2023-05-09T16:05:53.217Z,98448.69
2023-05-09T16:08:20.113Z,98434.59
2023-05-09T16:10:49.245Z,98429.00
2023-05-09T16:13:19.086Z,98425.94
2023-05-09T16:15:48.188Z,98417.13
2023-05-09T16:18:15.000Z,98414.44
2023-05-09T16:20:42.249Z,98405.28
2023-05-09T16:23:09.043Z,98408.13
2023-05-09T16:25:35.728Z,98407.97
2023-05-09T16:28:02.625Z,98404.81
2023-05-09T16:30:29.748Z,98403.94
2023-05-09T16:32:56.665Z,98400.22
2023-05-09T16:35:23.547Z,98392.72
2023-05-09T16:37:50.215Z,98393.34
2023-05-09T16:40:17.233Z,98397.94
2023-05-09T16:42:44.153Z,98392.75
2023-05-09T16:45:11.323Z,98395.28
2023-05-09T16:47:38.003Z,98381.84
2023-05-09T16:50:05.332Z,98381.97
2023-05-09T16:52:32.086Z,98391.94
2023-05-09T16:54:59.608Z,98378.13
2023-05-09T16:57:26.316Z,98375.31
2023-05-09T16:59:53.704Z,98374.19
2023-05-09T17:02:20.499Z,98368.38
2023-05-09T17:04:47.536Z,98366.47
2023-05-09T17:07:14.764Z,98360.56
2023-05-09T17:09:41.825Z,98365.47
2023-05-09T17:12:14.984Z,98359.41
2023-05-09T17:14:41.731Z,98358.84
2023-05-09T17:17:08.403Z,98356.28
2023-05-09T17:19:35.157Z,98359.41
2023-05-09T17:22:04.628Z,98354.72
2023-05-09T17:24:32.649Z,98347.63
2023-05-09T17:27:00.236Z,98338.06
2023-05-09T17:29:29.535Z,98341.81
2023-05-09T17:32:02.464Z,98332.44
2023-05-09T17:34:29.743Z,98333.03
2023-05-09T17:36:56.763Z,98324.97
2023-05-09T17:39:24.102Z,98330.09
2023-05-09T17:41:50.860Z,98320.75
2023-05-09T17:44:17.591Z,98325.19
2023-05-09T17:46:44.483Z,98327.25
2023-05-09T17:49:14.248Z,98324.41
2023-05-09T17:51:41.364Z,98318.72
2023-05-09T17:54:08.360Z,98321.72
2023-05-09T17:56:35.184Z,98314.00
2023-05-09T17:59:02.158Z,98319.31
2023-05-09T18:01:29.238Z,98316.88
2023-05-09T18:03:56.808Z,98312.50
2023-05-09T18:06:23.757Z,98301.03
2023-05-09T18:08:50.441Z,98311.56
2023-05-09T18:11:17.156Z,98302.16
2023-05-09T18:13:43.904Z,98302.66
2023-05-09T18:16:10.876Z,98303.81
2023-05-09T18:18:37.613Z,98302.16
2023-05-09T18:21:05.618Z,98306.94
2023-05-09T18:23:33.367Z,98302.25
2023-05-09T18:26:00.226Z,98295.19
2023-05-09T18:28:27.687Z,98301.41
2023-05-09T18:30:55.856Z,98292.06
2023-05-09T18:33:26.823Z,98301.16
2023-05-09T18:35:54.745Z,98294.25
2023-05-09T18:38:22.047Z,98298.63
2023-05-09T18:40:48.886Z,98306.22
2023-05-09T18:43:17.392Z,98294.22
2023-05-09T18:45:45.320Z,98302.47
2023-05-09T18:48:12.641Z,98297.19
2023-05-09T18:50:39.668Z,98297.06
2023-05-09T18:53:06.403Z,98294.44
2023-05-09T18:55:33.125Z,98292.22
2023-05-09T18:57:59.884Z,98286.34
2023-05-09T19:00:26.771Z,98292.88
2023-05-09T19:02:53.529Z,98290.91
2023-05-09T19:05:20.762Z,98289.06
2023-05-09T19:07:47.711Z,98290.72
2023-05-09T19:10:18.173Z,98291.97
2023-05-09T19:12:46.314Z,98283.78
2023-05-09T19:15:13.080Z,98288.09
2023-05-09T19:17:39.796Z,98284.63
2023-05-09T19:20:07.254Z,98284.00
2023-05-09T19:22:35.401Z,98289.31
2023-05-09T19:25:02.249Z,98286.63
2023-05-09T19:27:28.967Z,98281.13
2023-05-09T19:29:55.679Z,98290.13
2023-05-09T19:32:22.421Z,98282.94
2023-05-09T19:34:49.213Z,98277.19
2023-05-09T19:37:15.985Z,98292.13
2023-05-09T19:39:42.970Z,98287.81
2023-05-09T19:42:09.986Z,98281.84
2023-05-09T19:44:36.791Z,98280.31
2023-05-09T19:47:05.483Z,98285.16
2023-05-09T19:49:32.969Z,98288.34
2023-05-09T19:51:59.788Z,98293.25
2023-05-09T19:54:27.458Z,98290.81
2023-05-09T19:56:54.251Z,98285.09
2023-05-09T19:59:20.942Z,98291.63
2023-05-09T20:01:47.742Z,98287.31
2023-05-09T20:04:14.494Z,98278.13
2023-05-09T20:06:41.481Z,98280.84
2023-05-09T20:09:08.242Z,98281.31
2023-05-09T20:11:34.948Z,98282.59
2023-05-09T20:14:01.620Z,98276.50
2023-05-09T20:16:28.808Z,98288.44
2023-05-09T20:18:55.938Z,98279.41
2023-05-09T20:21:22.640Z,98285.47
2023-05-09T20:23:49.638Z,98280.34
2023-05-09T20:26:16.438Z,98280.03
2023-05-09T20:28:43.198Z,98281.22
2023-05-09T20:31:09.964Z,98273.84
2023-05-09T20:33:36.759Z,98283.97
2023-05-09T20:36:03.714Z,98279.69
2023-05-09T20:38:30.473Z,98279.19
2023-05-09T20:40:57.256Z,98279.47
2023-05-09T20:43:23.999Z,98276.91
2023-05-09T20:45:52.129Z,98278.63
2023-05-09T20:48:19.505Z,98279.19
2023-05-09T20:50:46.656Z,98277.03
2023-05-09T20:53:13.316Z,98283.03
2023-05-09T20:55:39.996Z,98280.34
2023-05-09T20:58:06.736Z,98278.72
2023-05-09T21:00:33.788Z,98271.38
2023-05-09T21:03:00.834Z,98274.16
2023-05-09T21:05:27.628Z,98275.72
2023-05-09T21:07:54.284Z,98267.47
2023-05-09T21:10:21.037Z,98270.72
2023-05-09T21:12:47.744Z,98264.50
2023-05-09T21:15:14.432Z,98263.00
2023-05-09T21:17:41.303Z,98257.72
2023-05-09T21:20:09.139Z,98260.72
2023-05-09T21:22:36.183Z,98252.81
2023-05-09T21:25:02.901Z,98258.50
2023-05-09T21:27:32.722Z,98258.19
2023-05-09T21:29:59.475Z,98246.88
2023-05-09T21:32:28.850Z,98250.41
2023-05-09T21:34:55.702Z,98248.28
2023-05-09T21:37:22.438Z,98247.41
2023-05-09T21:39:49.175Z,98241.75
2023-05-09T21:42:16.493Z,98237.25
2023-05-09T21:44:43.468Z,98243.22
2023-05-09T21:47:11.899Z,98235.50
2023-05-09T21:49:39.058Z,98238.16
2023-05-09T21:52:06.686Z,98236.50
2023-05-09T21:54:33.468Z,98235.34
2023-05-09T21:57:00.252Z,98231.69
2023-05-09T21:59:27.218Z,98229.66
2023-05-09T22:01:53.996Z,98230.94
2023-05-09T22:04:21.276Z,98232.59
2023-05-09T22:06:48.077Z,98245.25
2023-05-09T22:09:15.396Z,98243.06
2023-05-09T22:11:42.145Z,98243.88
2023-05-09T22:14:10.478Z,98243.91
2023-05-09T22:16:38.463Z,98250.03
2023-05-09T22:19:05.433Z,98243.69
2023-05-09T22:21:32.702Z,98248.59
2023-05-09T22:23:59.372Z,98241.25
2023-05-09T22:26:26.446Z,98237.75
2023-05-09T22:28:53.242Z,98238.56
2023-05-09T22:31:20.111Z,98238.31
2023-05-09T22:33:46.934Z,98237.38
2023-05-09T22:36:14.727Z,98235.31
2023-05-09T22:38:41.450Z,98230.66
2023-05-09T22:41:08.155Z,98230.84
2023-05-09T22:43:39.207Z,98229.84
2023-05-09T22:46:06.701Z,98229.41
2023-05-09T22:48:33.536Z,98227.38
2023-05-09T22:51:00.237Z,98230.84
2023-05-09T22:53:26.930Z,98222.06
2023-05-09T22:55:54.946Z,98229.41
2023-05-09T22:58:21.635Z,98218.22
2023-05-09T23:00:48.379Z,98224.09
2023-05-09T23:03:15.167Z,98223.66
2023-05-09T23:05:43.022Z,98215.72
2023-05-09T23:08:10.032Z,98215.50
2023-05-09T23:10:36.719Z,98223.66
2023-05-09T23:13:05.002Z,98222.03
2023-05-09T23:15:31.799Z,98211.38
2023-05-09T23:17:58.698Z,98214.47
2023-05-09T23:20:26.152Z,98213.03
2023-05-09T23:22:52.892Z,98218.69
2023-05-09T23:25:19.578Z,98211.75
2023-05-09T23:27:47.148Z,98215.19
2023-05-09T23:30:14.256Z,98212.44
2023-05-09T23:32:41.212Z,98210.81
2023-05-09T23:35:08.497Z,98198.97
2023-05-09T23:37:35.224Z,98200.00
2023-05-09T23:40:04.079Z,98194.88
2023-05-09T23:42:31.168Z,98190.19
2023-05-09T23:44:57.876Z,98198.53
2023-05-09T23:47:24.688Z,98197.75
2023-05-09T23:49:51.404Z,98188.34
2023-05-09T23:52:18.198Z,98192.34
2023-05-09T23:54:44.917Z,98188.84
2023-05-09T23:57:11.610Z,98193.28
2023-05-09T23:59:38.368Z,98188.63
